sensor_id;sensor_type;location;lat;lon;timestamp;P1;durP1;ratioP1;P2;durP2;ratioP2
59314;SDS011;46521;50.160;20.802;2022-09-03T00:12:50;7.70;;;2.00;;
59314;SDS011;46521;50.160;20.802;2022-09-03T00:22:57;7.10;;;2.68;;
59314;SDS011;46521;50.160;20.802;2022-09-03T00:43:20;6.20;;;2.30;;
59314;SDS011;46521;50.160;20.802;2022-09-03T01:04:07;7.38;;;2.70;;
59314;SDS011;46521;50.160;20.802;2022-09-03T01:45:27;6.43;;;2.30;;
59314;SDS011;46521;50.160;20.802;2022-09-03T01:55:46;6.53;;;2.27;;
59314;SDS011;46521;50.160;20.802;2022-09-03T02:05:55;6.50;;;2.40;;
59314;SDS011;46521;50.160;20.802;2022-09-03T02:15:58;7.07;;;2.70;;
59314;SDS011;46521;50.160;20.802;2022-09-03T02:26:07;6.40;;;2.60;;
59314;SDS011;46521;50.160;20.802;2022-09-03T02:36:12;8.85;;;2.70;;
59314;SDS011;46521;50.160;20.802;2022-09-03T02:46:19;8.10;;;3.27;;
59314;SDS011;46521;50.160;20.802;2022-09-03T02:56:23;7.00;;;3.20;;
59314;SDS011;46521;50.160;20.802;2022-09-03T03:06:27;8.93;;;3.10;;
59314;SDS011;46521;50.160;20.802;2022-09-03T03:16:29;8.30;;;3.50;;
59314;SDS011;46521;50.160;20.802;2022-09-03T03:26:30;7.03;;;3.08;;
59314;SDS011;46521;50.160;20.802;2022-09-03T03:36:32;9.43;;;3.50;;
59314;SDS011;46521;50.160;20.802;2022-09-03T03:46:35;9.30;;;3.20;;
59314;SDS011;46521;50.160;20.802;2022-09-03T03:56:38;8.27;;;3.67;;
59314;SDS011;46521;50.160;20.802;2022-09-03T04:06:40;9.00;;;3.00;;
59314;SDS011;46521;50.160;20.802;2022-09-03T04:16:41;7.65;;;3.20;;
59314;SDS011;46521;50.160;20.802;2022-09-03T04:26:43;8.80;;;3.20;;
59314;SDS011;46521;50.160;20.802;2022-09-03T04:36:44;8.60;;;3.60;;
59314;SDS011;46521;50.160;20.802;2022-09-03T04:46:46;8.80;;;3.15;;
59314;SDS011;46521;50.160;20.802;2022-09-03T04:56:48;8.00;;;3.68;;
59314;SDS011;46521;50.160;20.802;2022-09-03T05:06:49;8.67;;;3.53;;
59314;SDS011;46521;50.160;20.802;2022-09-03T05:16:50;10.35;;;3.50;;
59314;SDS011;46521;50.160;20.802;2022-09-03T05:26:52;10.50;;;4.40;;
59314;SDS011;46521;50.160;20.802;2022-09-03T05:36:55;8.40;;;3.90;;
59314;SDS011;46521;50.160;20.802;2022-09-03T05:46:58;8.90;;;3.70;;
59314;SDS011;46521;50.160;20.802;2022-09-03T05:57:00;8.47;;;4.00;;
59314;SDS011;46521;50.160;20.802;2022-09-03T06:07:01;10.77;;;4.10;;
59314;SDS011;46521;50.160;20.802;2022-09-03T06:17:02;10.03;;;5.08;;
59314;SDS011;46521;50.160;20.802;2022-09-03T06:27:04;8.98;;;5.00;;
59314;SDS011;46521;50.160;20.802;2022-09-03T06:37:06;10.10;;;5.10;;
59314;SDS011;46521;50.160;20.802;2022-09-03T06:47:07;8.70;;;4.20;;
59314;SDS011;46521;50.160;20.802;2022-09-03T06:57:08;9.30;;;4.40;;
59314;SDS011;46521;50.160;20.802;2022-09-03T07:07:10;9.10;;;4.05;;
59314;SDS011;46521;50.160;20.802;2022-09-03T07:17:13;8.20;;;4.43;;
59314;SDS011;46521;50.160;20.802;2022-09-03T07:27:14;8.63;;;4.03;;
59314;SDS011;46521;50.160;20.802;2022-09-03T07:37:15;6.97;;;3.57;;
59314;SDS011;46521;50.160;20.802;2022-09-03T07:47:18;8.35;;;4.10;;
59314;SDS011;46521;50.160;20.802;2022-09-03T07:57:20;9.35;;;4.25;;
59314;SDS011;46521;50.160;20.802;2022-09-03T08:07:22;6.70;;;3.43;;
59314;SDS011;46521;50.160;20.802;2022-09-03T08:17:23;7.80;;;4.05;;
59314;SDS011;46521;50.160;20.802;2022-09-03T08:27:24;8.50;;;3.90;;
59314;SDS011;46521;50.160;20.802;2022-09-03T08:37:27;7.53;;;3.73;;
59314;SDS011;46521;50.160;20.802;2022-09-03T08:47:32;8.93;;;4.50;;
59314;SDS011;46521;50.160;20.802;2022-09-03T08:57:40;9.50;;;4.40;;
59314;SDS011;46521;50.160;20.802;2022-09-03T09:08:07;9.30;;;4.30;;
59314;SDS011;46521;50.160;20.802;2022-09-03T09:29:14;8.47;;;4.07;;
59314;SDS011;46521;50.160;20.802;2022-09-03T09:39:19;9.20;;;4.50;;
59314;SDS011;46521;50.160;20.802;2022-09-03T09:49:31;9.20;;;4.30;;
59314;SDS011;46521;50.160;20.802;2022-09-03T09:59:35;8.95;;;4.80;;
59314;SDS011;46521;50.160;20.802;2022-09-03T10:09:37;7.70;;;3.90;;
59314;SDS011;46521;50.160;20.802;2022-09-03T10:19:45;8.73;;;3.90;;
59314;SDS011;46521;50.160;20.802;2022-09-03T10:30:23;8.20;;;4.43;;
59314;SDS011;46521;50.160;20.802;2022-09-03T11:00:51;11.77;;;4.57;;
59314;SDS011;46521;50.160;20.802;2022-09-03T11:21:15;7.13;;;3.80;;
59314;SDS011;46521;50.160;20.802;2022-09-03T11:31:29;7.30;;;3.10;;
59314;SDS011;46521;50.160;20.802;2022-09-03T11:41:33;6.15;;;3.08;;
59314;SDS011;46521;50.160;20.802;2022-09-03T11:51:35;6.33;;;3.37;;
59314;SDS011;46521;50.160;20.802;2022-09-03T12:22:18;8.87;;;3.63;;
59314;SDS011;46521;50.160;20.802;2022-09-03T12:32:21;5.70;;;2.90;;
59314;SDS011;46521;50.160;20.802;2022-09-03T12:42:25;7.00;;;2.85;;
59314;SDS011;46521;50.160;20.802;2022-09-03T12:52:29;5.10;;;2.55;;
59314;SDS011;46521;50.160;20.802;2022-09-03T13:02:45;7.40;;;3.00;;
59314;SDS011;46521;50.160;20.802;2022-09-03T13:13:00;6.15;;;2.55;;
59314;SDS011;46521;50.160;20.802;2022-09-03T13:33:58;6.87;;;3.60;;
59314;SDS011;46521;50.160;20.802;2022-09-03T13:44:06;7.50;;;3.50;;
59314;SDS011;46521;50.160;20.802;2022-09-03T13:54:23;6.90;;;3.40;;
59314;SDS011;46521;50.160;20.802;2022-09-03T14:24:56;5.03;;;1.78;;
59314;SDS011;46521;50.160;20.802;2022-09-03T15:37:12;7.13;;;2.90;;
59314;SDS011;46521;50.160;20.802;2022-09-03T15:47:39;6.65;;;2.53;;
59314;SDS011;46521;50.160;20.802;2022-09-03T16:50:04;6.45;;;2.80;;
59314;SDS011;46521;50.160;20.802;2022-09-03T17:00:21;6.93;;;2.75;;
59314;SDS011;46521;50.160;20.802;2022-09-03T17:10:48;9.15;;;3.50;;
59314;SDS011;46521;50.160;20.802;2022-09-03T17:41:51;6.90;;;3.07;;
59314;SDS011;46521;50.160;20.802;2022-09-03T18:02:16;9.77;;;4.63;;
59314;SDS011;46521;50.160;20.802;2022-09-03T18:33:09;14.67;;;8.40;;
59314;SDS011;46521;50.160;20.802;2022-09-03T18:43:41;14.60;;;7.05;;
59314;SDS011;46521;50.160;20.802;2022-09-03T19:15:31;11.65;;;6.25;;
59314;SDS011;46521;50.160;20.802;2022-09-03T19:25:57;11.07;;;6.53;;
59314;SDS011;46521;50.160;20.802;2022-09-03T19:46:58;11.03;;;6.20;;
59314;SDS011;46521;50.160;20.802;2022-09-03T19:57:20;11.40;;;5.80;;
59314;SDS011;46521;50.160;20.802;2022-09-03T20:07:40;10.13;;;4.90;;
59314;SDS011;46521;50.160;20.802;2022-09-03T20:18:09;11.00;;;4.90;;
59314;SDS011;46521;50.160;20.802;2022-09-03T20:28:19;9.98;;;4.78;;
59314;SDS011;46521;50.160;20.802;2022-09-03T20:59:52;9.00;;;4.55;;
59314;SDS011;46521;50.160;20.802;2022-09-03T21:30:17;9.47;;;5.03;;
59314;SDS011;46521;50.160;20.802;2022-09-03T21:40:20;11.10;;;4.83;;
59314;SDS011;46521;50.160;20.802;2022-09-03T21:51:00;9.30;;;5.30;;
59314;SDS011;46521;50.160;20.802;2022-09-03T22:00:56;10.03;;;5.50;;
59314;SDS011;46521;50.160;20.802;2022-09-03T22:11:26;9.93;;;5.63;;
59314;SDS011;46521;50.160;20.802;2022-09-03T22:32:03;10.27;;;6.00;;
59314;SDS011;46521;50.160;20.802;2022-09-03T23:03:35;9.80;;;5.80;;
59314;SDS011;46521;50.160;20.802;2022-09-03T23:13:43;11.23;;;6.53;;
59314;SDS011;46521;50.160;20.802;2022-09-03T23:23:50;11.33;;;6.70;;
59314;SDS011;46521;50.160;20.802;2022-09-03T23:33:56;10.18;;;6.38;;
